Grand Island, Oregon
Current Conditions -  °F | °C
As of 6:53 PM on Friday 19 Dec 2014 (Local Time) from KMMV Reporting Station
Light Rain Light Rain  
Wind Chill: 46°   Ceiling: 3900
Heat Index: 49°   Visibility: 10mi
Dew Point: 45°   Wind: 7mph
Humidity: 86%   Direction: 160°SSE
Pressure: 29.99"   Gusts: NA
Location:  45.1812°N, 123.076°W
Report Text: KMMV 200253Z AUTO 16006KT 10SM -RA FEW032 BKN039 OVC050 09/07 A2999 RMK AO2 RAB32 SLP153 P0000 60000 T00940072 55002
Loading
Personal Weather Stations






























Interactive Weather Map New forecast layout! Learn more

10-Day Weather Forecast

Advertisements
Track Severe Weather on mobile